PWSweather.com
Personal Weather Stations
Station Observations
CANEBAS
Del Rey Hills , Orinda, CA 94563

Del Rey Hills Orinda, CA 94563

Lat: 37.851111, Lon: -122.155

Elevation: 725

Station Type: Davis Vantage Pro-2

http://www.canebas.org/Weather/

Latest ConditionsUpdated 2:09:15 PM PST Saturday, Feb 23, 2019
Currently Today's Max Today's Min Today's Average
Temperature 53.4°F11.9°C 54.5°F12.5°C 34.7°F1.5°C 42.2°F5.7°C
Dew Point 38.1°F3.4°C 43.1°F6.2°C 29.5°F-1.4°C 34.6°F1.4°C
Winds 1.0 mph S1.6 kmh S 4.0 mph -6.4 kmh - - 0.4 mph 0.6 kmh
Wind Gusts 5.0 mph8.0 kmh 8.0 mph12.9 kmh - -
Humidity 56% 81% 56% 75%
Pressure 30.23 in1023.7 mb 30.27 in1025.1 mb 30.17 in1021.7 mb -
Hour Temp Dew Point Humidity Winds Wind Gusts Pressure Precip Precip Rate Daily Precip Total
02:09 PM 53.4°F11.9°C 38.1°F3.4°C 56% 1.0 mph S1.6 kmh S 5.0 mph8.0 kmh 30.23 in1023.7 mb 0.00 in0.0 mm 0.00 in0.0 mm 0.00 in0.0 mm
02:04 PM 53.5°F11.9°C 39.1°F3.9°C 58% Calm Calm 3.0 mph4.8 kmh 30.23 in1023.7 mb 0.00 in0.0 mm 0.00 in0.0 mm 0.00 in0.0 mm
01:59 PM 53.2°F11.8°C 38.8°F3.8°C 58% Calm Calm 3.0 mph4.8 kmh 30.23 in1023.7 mb 0.00 in0.0 mm 0.00 in0.0 mm 0.00 in0.0 mm
01:54 PM 53.5°F11.9°C 40.4°F4.7°C 61% 1.0 mph SE1.6 kmh SE 3.0 mph4.8 kmh 30.23 in1023.7 mb 0.00 in0.0 mm 0.00 in0.0 mm 0.00 in0.0 mm
01:49 PM 53.6°F12.0°C 40.1°F4.5°C 60% 2.0 mph S3.2 kmh S 4.0 mph6.4 kmh 30.23 in1023.7 mb 0.00 in0.0 mm 0.00 in0.0 mm 0.00 in0.0 mm
01:44 PM 53.9°F12.2°C 39.5°F4.2°C 58% 1.0 mph ENE1.6 kmh ENE 4.0 mph6.4 kmh 30.23 in1023.7 mb 0.00 in0.0 mm 0.00 in0.0 mm 0.00 in0.0 mm
01:39 PM 54.5°F12.5°C 40.5°F4.7°C 59% 1.0 mph S1.6 kmh S 4.0 mph6.4 kmh 30.23 in1023.7 mb 0.00 in0.0 mm 0.00 in0.0 mm 0.00 in0.0 mm
01:34 PM 54.2°F12.3°C 40.2°F4.6°C 59% Calm Calm 4.0 mph6.4 kmh 30.23 in1023.7 mb 0.00 in0.0 mm 0.00 in0.0 mm 0.00 in0.0 mm
01:29 PM 53.9°F12.2°C 39.5°F4.2°C 58% 1.0 mph ESE1.6 kmh ESE 3.0 mph4.8 kmh 30.23 in1023.7 mb 0.00 in0.0 mm 0.00 in0.0 mm 0.00 in0.0 mm
01:24 PM 53.3°F11.8°C 38.0°F3.3°C 56% Calm Calm 8.0 mph12.9 kmh 30.23 in1023.7 mb 0.00 in0.0 mm 0.00 in0.0 mm 0.00 in0.0 mm
01:19 PM 53.5°F11.9°C 39.1°F3.9°C 58% Calm Calm 8.0 mph12.9 kmh 30.23 in1023.7 mb 0.00 in0.0 mm 0.00 in0.0 mm 0.00 in0.0 mm
01:14 PM 53.6°F12.0°C 39.6°F4.2°C 59% 1.0 mph SE1.6 kmh SE 8.0 mph12.9 kmh 30.23 in1023.7 mb 0.00 in0.0 mm 0.00 in0.0 mm 0.00 in0.0 mm
01:09 PM 53.9°F12.2°C 40.3°F4.6°C 60% 2.0 mph S3.2 kmh S 8.0 mph12.9 kmh 30.23 in1023.7 mb 0.00 in0.0 mm 0.00 in0.0 mm 0.00 in0.0 mm
01:04 PM 53.7°F12.1°C 40.6°F4.8°C 61% Calm Calm 2.0 mph3.2 kmh 30.24 in1024.0 mb 0.00 in0.0 mm 0.00 in0.0 mm 0.00 in0.0 mm
12:59 PM 53.1°F11.7°C 40.0°F4.4°C 61% Calm Calm 2.0 mph3.2 kmh 30.24 in1024.0 mb 0.00 in0.0 mm 0.00 in0.0 mm 0.00 in0.0 mm
12:54 PM 53.3°F11.8°C 40.2°F4.6°C 61% 1.0 mph ESE1.6 kmh ESE 3.0 mph4.8 kmh 30.24 in1024.0 mb 0.00 in0.0 mm 0.00 in0.0 mm 0.00 in0.0 mm
12:49 PM 53.3°F11.8°C 40.6°F4.8°C 62% Calm Calm 3.0 mph4.8 kmh 30.24 in1024.0 mb 0.00 in0.0 mm 0.00 in0.0 mm 0.00 in0.0 mm
12:44 PM 53.0°F11.7°C 40.7°F4.8°C 63% 2.0 mph ESE3.2 kmh ESE 4.0 mph6.4 kmh 30.24 in1024.0 mb 0.00 in0.0 mm 0.00 in0.0 mm 0.00 in0.0 mm
12:39 PM 53.2°F11.8°C 40.9°F4.9°C 63% Calm Calm 4.0 mph6.4 kmh 30.25 in1024.4 mb 0.00 in0.0 mm 0.00 in0.0 mm 0.00 in0.0 mm
12:34 PM 52.9°F11.6°C 40.7°F4.8°C 63% Calm Calm 4.0 mph6.4 kmh 30.25 in1024.4 mb 0.00 in0.0 mm 0.00 in0.0 mm 0.00 in0.0 mm
12:29 PM 52.6°F11.4°C 40.0°F4.4°C 62% 1.0 mph E1.6 kmh E 4.0 mph6.4 kmh 30.25 in1024.4 mb 0.00 in0.0 mm 0.00 in0.0 mm 0.00 in0.0 mm
12:24 PM 52.5°F11.4°C 40.7°F4.8°C 64% 2.0 mph SW3.2 kmh SW 5.0 mph8.0 kmh 30.25 in1024.4 mb 0.00 in0.0 mm 0.00 in0.0 mm 0.00 in0.0 mm
12:19 PM 52.5°F11.4°C 40.7°F4.8°C 64% 2.0 mph S3.2 kmh S 5.0 mph8.0 kmh 30.26 in1024.7 mb 0.00 in0.0 mm 0.00 in0.0 mm 0.00 in0.0 mm
12:14 PM 52.7°F11.5°C 40.5°F4.7°C 63% 2.0 mph S3.2 kmh S 6.0 mph9.7 kmh 30.26 in1024.7 mb 0.00 in0.0 mm 0.00 in0.0 mm 0.00 in0.0 mm
12:09 PM 53.0°F11.7°C 39.9°F4.4°C 61% 1.0 mph S1.6 kmh S 6.0 mph9.7 kmh 30.26 in1024.7 mb 0.00 in0.0 mm 0.00 in0.0 mm 0.00 in0.0 mm
12:04 PM 53.1°F11.7°C 39.2°F4.0°C 59% 1.0 mph SE1.6 kmh SE 6.0 mph9.7 kmh 30.26 in1024.7 mb 0.00 in0.0 mm 0.00 in0.0 mm 0.00 in0.0 mm
11:59 AM 53.2°F11.8°C 39.7°F4.3°C 60% 1.0 mph S1.6 kmh S 6.0 mph9.7 kmh 30.26 in1024.7 mb 0.00 in0.0 mm 0.00 in0.0 mm 0.00 in0.0 mm
11:54 AM 53.2°F11.8°C 40.5°F4.7°C 62% 1.0 mph SSE1.6 kmh SSE 6.0 mph9.7 kmh 30.26 in1024.7 mb 0.00 in0.0 mm 0.00 in0.0 mm 0.00 in0.0 mm
11:49 AM 53.5°F11.9°C 41.2°F5.1°C 63% 2.0 mph SSE3.2 kmh SSE 6.0 mph9.7 kmh 30.26 in1024.7 mb 0.00 in0.0 mm 0.00 in0.0 mm 0.00 in0.0 mm
11:44 AM 53.7°F12.1°C 40.1°F4.5°C 60% 1.0 mph SSE1.6 kmh SSE 5.0 mph8.0 kmh 30.26 in1024.7 mb 0.00 in0.0 mm 0.00 in0.0 mm 0.00 in0.0 mm
11:39 AM 53.8°F12.1°C 41.5°F5.3°C 63% Calm Calm 5.0 mph8.0 kmh 30.26 in1024.7 mb 0.00 in0.0 mm 0.00 in0.0 mm 0.00 in0.0 mm
11:34 AM 53.8°F12.1°C 41.1°F5.1°C 62% 1.0 mph S1.6 kmh S 5.0 mph8.0 kmh 30.26 in1024.7 mb 0.00 in0.0 mm 0.00 in0.0 mm 0.00 in0.0 mm
11:29 AM 54.2°F12.3°C 41.5°F5.3°C 62% 4.0 mph SE6.4 kmh SE 4.0 mph6.4 kmh 30.26 in1024.7 mb 0.00 in0.0 mm 0.00 in0.0 mm 0.00 in0.0 mm
11:24 AM 54.5°F12.5°C 41.7°F5.4°C 62% 2.0 mph S3.2 kmh S 4.0 mph6.4 kmh 30.27 in1025.1 mb 0.00 in0.0 mm 0.00 in0.0 mm 0.00 in0.0 mm
11:19 AM 54.5°F12.5°C 42.6°F5.9°C 64% 1.0 mph SW1.6 kmh SW 4.0 mph6.4 kmh 30.27 in1025.1 mb 0.00 in0.0 mm 0.00 in0.0 mm 0.00 in0.0 mm
11:14 AM 53.5°F11.9°C 42.8°F6.0°C 67% 1.0 mph E1.6 kmh E 4.0 mph6.4 kmh 30.26 in1024.7 mb 0.00 in0.0 mm 0.00 in0.0 mm 0.00 in0.0 mm
11:09 AM 52.8°F11.6°C 42.1°F5.6°C 67% 1.0 mph E1.6 kmh E 6.0 mph9.7 kmh 30.26 in1024.7 mb 0.00 in0.0 mm 0.00 in0.0 mm 0.00 in0.0 mm
11:04 AM 52.4°F11.3°C 41.8°F5.4°C 67% Calm Calm 6.0 mph9.7 kmh 30.26 in1024.7 mb 0.00 in0.0 mm 0.00 in0.0 mm 0.00 in0.0 mm
10:59 AM 52.0°F11.1°C 42.1°F5.6°C 69% 1.0 mph ESE1.6 kmh ESE 6.0 mph9.7 kmh 30.26 in1024.7 mb 0.00 in0.0 mm 0.00 in0.0 mm 0.00 in0.0 mm
10:54 AM 51.9°F11.1°C 42.1°F5.6°C 69% Calm Calm 6.0 mph9.7 kmh 30.26 in1024.7 mb 0.00 in0.0 mm 0.00 in0.0 mm 0.00 in0.0 mm
10:49 AM 52.3°F11.3°C 42.1°F5.6°C 68% 1.0 mph SW1.6 kmh SW 7.0 mph11.3 kmh 30.25 in1024.4 mb 0.00 in0.0 mm 0.00 in0.0 mm 0.00 in0.0 mm
10:44 AM 52.4°F11.3°C 41.4°F5.2°C 66% 3.0 mph ESE4.8 kmh ESE 7.0 mph11.3 kmh 30.26 in1024.7 mb 0.00 in0.0 mm 0.00 in0.0 mm 0.00 in0.0 mm
10:39 AM 52.8°F11.6°C 42.1°F5.6°C 67% 2.0 mph E3.2 kmh E 7.0 mph11.3 kmh 30.26 in1024.7 mb 0.00 in0.0 mm 0.00 in0.0 mm 0.00 in0.0 mm
10:34 AM 52.8°F11.6°C 42.5°F5.8°C 68% 2.0 mph SE3.2 kmh SE 7.0 mph11.3 kmh 30.26 in1024.7 mb 0.00 in0.0 mm 0.00 in0.0 mm 0.00 in0.0 mm
10:29 AM 52.3°F11.3°C 42.1°F5.6°C 68% 3.0 mph E4.8 kmh E 6.0 mph9.7 kmh 30.26 in1024.7 mb 0.00 in0.0 mm 0.00 in0.0 mm 0.00 in0.0 mm
10:24 AM 52.2°F11.2°C 43.1°F6.2°C 71% 1.0 mph E1.6 kmh E 6.0 mph9.7 kmh 30.26 in1024.7 mb 0.00 in0.0 mm 0.00 in0.0 mm 0.00 in0.0 mm
10:19 AM 51.0°F10.6°C 41.9°F5.5°C 71% Calm Calm 6.0 mph9.7 kmh 30.27 in1025.1 mb 0.00 in0.0 mm 0.00 in0.0 mm 0.00 in0.0 mm
10:14 AM 49.6°F9.8°C 41.3°F5.2°C 73% 2.0 mph E3.2 kmh E 4.0 mph6.4 kmh 30.26 in1024.7 mb 0.00 in0.0 mm 0.00 in0.0 mm 0.00 in0.0 mm
10:09 AM 49.1°F9.5°C 40.5°F4.7°C 72% 2.0 mph ESE3.2 kmh ESE 4.0 mph6.4 kmh 30.26 in1024.7 mb 0.00 in0.0 mm 0.00 in0.0 mm 0.00 in0.0 mm
10:04 AM 49.1°F9.5°C 40.5°F4.7°C 72% 1.0 mph E1.6 kmh E 6.0 mph9.7 kmh 30.26 in1024.7 mb 0.00 in0.0 mm 0.00 in0.0 mm 0.00 in0.0 mm
09:59 AM 49.0°F9.4°C 40.7°F4.8°C 73% Calm Calm 6.0 mph9.7 kmh 30.26 in1024.7 mb 0.00 in0.0 mm 0.00 in0.0 mm 0.00 in0.0 mm
09:54 AM 48.7°F9.3°C 40.4°F4.7°C 73% Calm Calm 6.0 mph9.7 kmh 30.26 in1024.7 mb 0.00 in0.0 mm 0.00 in0.0 mm 0.00 in0.0 mm
09:49 AM 48.0°F8.9°C 39.8°F4.3°C 73% 2.0 mph E3.2 kmh E 6.0 mph9.7 kmh 30.26 in1024.7 mb 0.00 in0.0 mm 0.00 in0.0 mm 0.00 in0.0 mm
09:44 AM 47.1°F8.4°C 39.2°F4.0°C 74% 1.0 mph ESE1.6 kmh ESE 4.0 mph6.4 kmh 30.26 in1024.7 mb 0.00 in0.0 mm 0.00 in0.0 mm 0.00 in0.0 mm
09:39 AM 46.1°F7.8°C 38.3°F3.5°C 74% 1.0 mph E1.6 kmh E 2.0 mph3.2 kmh 30.26 in1024.7 mb 0.00 in0.0 mm 0.00 in0.0 mm 0.00 in0.0 mm
09:34 AM 45.6°F7.6°C 37.8°F3.2°C 74% Calm Calm 2.0 mph3.2 kmh 30.26 in1024.7 mb 0.00 in0.0 mm 0.00 in0.0 mm 0.00 in0.0 mm
09:29 AM 45.4°F7.4°C 37.6°F3.1°C 74% Calm Calm 6.0 mph9.7 kmh 30.26 in1024.7 mb 0.00 in0.0 mm 0.00 in0.0 mm 0.00 in0.0 mm
09:24 AM 45.2°F7.3°C 37.4°F3.0°C 74% Calm Calm 6.0 mph9.7 kmh 30.26 in1024.7 mb 0.00 in0.0 mm 0.00 in0.0 mm 0.00 in0.0 mm
09:19 AM 45.3°F7.4°C 38.2°F3.4°C 76% Calm Calm 6.0 mph9.7 kmh 30.26 in1024.7 mb 0.00 in0.0 mm 0.00 in0.0 mm 0.00 in0.0 mm
09:14 AM 44.6°F7.0°C 37.8°F3.2°C 77% 1.0 mph E1.6 kmh E 4.0 mph6.4 kmh 30.26 in1024.7 mb 0.00 in0.0 mm 0.00 in0.0 mm 0.00 in0.0 mm
09:09 AM 43.5°F6.4°C 37.1°F2.8°C 78% 1.0 mph E1.6 kmh E 3.0 mph4.8 kmh 30.27 in1025.1 mb 0.00 in0.0 mm 0.00 in0.0 mm 0.00 in0.0 mm
09:04 AM 42.2°F5.7°C 36.2°F2.3°C 79% 1.0 mph ENE1.6 kmh ENE 2.0 mph3.2 kmh 30.27 in1025.1 mb 0.00 in0.0 mm 0.00 in0.0 mm 0.00 in0.0 mm
08:59 AM 41.6°F5.3°C 35.9°F2.2°C 80% 1.0 mph ENE1.6 kmh ENE 2.0 mph3.2 kmh 30.26 in1024.7 mb 0.00 in0.0 mm 0.00 in0.0 mm 0.00 in0.0 mm
08:54 AM 41.4°F5.2°C 35.7°F2.1°C 80% 1.0 mph ENE1.6 kmh ENE 1.0 mph1.6 kmh 30.26 in1024.7 mb 0.00 in0.0 mm 0.00 in0.0 mm 0.00 in0.0 mm
08:49 AM 41.9°F5.5°C 36.2°F2.3°C 80% Calm Calm 1.0 mph1.6 kmh 30.27 in1025.1 mb 0.00 in0.0 mm 0.00 in0.0 mm 0.00 in0.0 mm
08:44 AM 41.9°F5.5°C 36.2°F2.3°C 80% 1.0 mph ENE1.6 kmh ENE 2.0 mph3.2 kmh 30.26 in1024.7 mb 0.00 in0.0 mm 0.00 in0.0 mm 0.00 in0.0 mm
08:39 AM 41.2°F5.1°C 35.5°F1.9°C 80% 1.0 mph ENE1.6 kmh ENE 2.0 mph3.2 kmh 30.26 in1024.7 mb 0.00 in0.0 mm 0.00 in0.0 mm 0.00 in0.0 mm
08:34 AM 40.6°F4.8°C 34.9°F1.6°C 80% Calm Calm -- 30.26 in1024.7 mb 0.00 in0.0 mm 0.00 in0.0 mm 0.00 in0.0 mm
08:29 AM 40.1°F4.5°C 34.4°F1.3°C 80% Calm Calm 1.0 mph1.6 kmh 30.26 in1024.7 mb 0.00 in0.0 mm 0.00 in0.0 mm 0.00 in0.0 mm
08:24 AM 39.5°F4.2°C 33.9°F1.1°C 80% Calm Calm -- 30.26 in1024.7 mb 0.00 in0.0 mm 0.00 in0.0 mm 0.00 in0.0 mm
08:19 AM 39.0°F3.9°C 33.4°F0.8°C 80% Calm Calm -- 30.26 in1024.7 mb 0.00 in0.0 mm 0.00 in0.0 mm 0.00 in0.0 mm
08:14 AM 38.4°F3.6°C 32.8°F0.4°C 80% Calm Calm -- 30.25 in1024.4 mb 0.00 in0.0 mm 0.00 in0.0 mm 0.00 in0.0 mm
08:09 AM 38.1°F3.4°C 32.5°F0.3°C 80% Calm Calm -- 30.25 in1024.4 mb 0.00 in0.0 mm 0.00 in0.0 mm 0.00 in0.0 mm
08:04 AM 38.2°F3.4°C 32.6°F0.3°C 80% Calm Calm -- 30.25 in1024.4 mb 0.00 in0.0 mm 0.00 in0.0 mm 0.00 in0.0 mm
07:59 AM 36.8°F2.7°C 31.5°F-0.3°C 81% Calm Calm -- 30.25 in1024.4 mb 0.00 in0.0 mm 0.00 in0.0 mm 0.00 in0.0 mm
07:54 AM 36.7°F2.6°C 31.4°F-0.3°C 81% Calm Calm -- 30.24 in1024.0 mb 0.00 in0.0 mm 0.00 in0.0 mm 0.00 in0.0 mm
07:49 AM 36.6°F2.6°C 31.3°F-0.4°C 81% Calm Calm -- 30.24 in1024.0 mb 0.00 in0.0 mm 0.00 in0.0 mm 0.00 in0.0 mm
07:44 AM 36.0°F2.2°C 30.7°F-0.7°C 81% Calm Calm -- 30.24 in1024.0 mb 0.00 in0.0 mm 0.00 in0.0 mm 0.00 in0.0 mm
07:39 AM 36.5°F2.5°C 31.2°F-0.4°C 81% Calm Calm -- 30.24 in1024.0 mb 0.00 in0.0 mm 0.00 in0.0 mm 0.00 in0.0 mm
07:34 AM 36.1°F2.3°C 30.8°F-0.7°C 81% Calm Calm -- 30.24 in1024.0 mb 0.00 in0.0 mm 0.00 in0.0 mm 0.00 in0.0 mm
07:29 AM 36.8°F2.7°C 31.5°F-0.3°C 81% Calm Calm -- 30.24 in1024.0 mb 0.00 in0.0 mm 0.00 in0.0 mm 0.00 in0.0 mm
07:24 AM 36.2°F2.3°C 30.9°F-0.6°C 81% Calm Calm -- 30.24 in1024.0 mb 0.00 in0.0 mm 0.00 in0.0 mm 0.00 in0.0 mm
07:19 AM 36.1°F2.3°C 30.8°F-0.7°C 81% Calm Calm -- 30.23 in1023.7 mb 0.00 in0.0 mm 0.00 in0.0 mm 0.00 in0.0 mm
07:14 AM 36.3°F2.4°C 31.0°F-0.6°C 81% Calm Calm -- 30.23 in1023.7 mb 0.00 in0.0 mm 0.00 in0.0 mm 0.00 in0.0 mm
07:09 AM 36.5°F2.5°C 31.2°F-0.4°C 81% Calm Calm -- 30.23 in1023.7 mb 0.00 in0.0 mm 0.00 in0.0 mm 0.00 in0.0 mm
07:04 AM 36.4°F2.4°C 31.1°F-0.5°C 81% Calm Calm -- 30.23 in1023.7 mb 0.00 in0.0 mm 0.00 in0.0 mm 0.00 in0.0 mm
06:59 AM 36.5°F2.5°C 31.2°F-0.4°C 81% Calm Calm -- 30.23 in1023.7 mb 0.00 in0.0 mm 0.00 in0.0 mm 0.00 in0.0 mm
06:54 AM 36.3°F2.4°C 31.0°F-0.6°C 81% Calm Calm -- 30.23 in1023.7 mb 0.00 in0.0 mm 0.00 in0.0 mm 0.00 in0.0 mm
06:49 AM 36.0°F2.2°C 30.7°F-0.7°C 81% Calm Calm -- 30.22 in1023.4 mb 0.00 in0.0 mm 0.00 in0.0 mm 0.00 in0.0 mm
06:44 AM 35.9°F2.2°C 30.6°F-0.8°C 81% Calm Calm -- 30.22 in1023.4 mb 0.00 in0.0 mm 0.00 in0.0 mm 0.00 in0.0 mm
06:39 AM 35.4°F1.9°C 30.2°F-1.0°C 81% Calm Calm -- 30.22 in1023.4 mb 0.00 in0.0 mm 0.00 in0.0 mm 0.00 in0.0 mm
06:34 AM 35.3°F1.8°C 30.1°F-1.1°C 81% Calm Calm -- 30.22 in1023.4 mb 0.00 in0.0 mm 0.00 in0.0 mm 0.00 in0.0 mm
06:29 AM 35.3°F1.8°C 30.1°F-1.1°C 81% Calm Calm -- 30.22 in1023.4 mb 0.00 in0.0 mm 0.00 in0.0 mm 0.00 in0.0 mm
06:24 AM 34.7°F1.5°C 29.5°F-1.4°C 81% Calm Calm -- 30.22 in1023.4 mb 0.00 in0.0 mm 0.00 in0.0 mm 0.00 in0.0 mm
06:19 AM 34.7°F1.5°C 29.5°F-1.4°C 81% Calm Calm -- 30.22 in1023.4 mb 0.00 in0.0 mm 0.00 in0.0 mm 0.00 in0.0 mm
06:14 AM 34.7°F1.5°C 29.5°F-1.4°C 81% Calm Calm -- 30.22 in1023.4 mb 0.00 in0.0 mm 0.00 in0.0 mm 0.00 in0.0 mm
06:09 AM 35.2°F1.8°C 30.0°F-1.1°C 81% Calm Calm -- 30.21 in1023.0 mb 0.00 in0.0 mm 0.00 in0.0 mm 0.00 in0.0 mm
06:04 AM 35.4°F1.9°C 30.2°F-1.0°C 81% Calm Calm -- 30.21 in1023.0 mb 0.00 in0.0 mm 0.00 in0.0 mm 0.00 in0.0 mm
05:59 AM 36.4°F2.4°C 31.1°F-0.5°C 81% Calm Calm -- 30.22 in1023.4 mb 0.00 in0.0 mm 0.00 in0.0 mm 0.00 in0.0 mm
05:54 AM 36.2°F2.3°C 30.9°F-0.6°C 81% Calm Calm -- 30.22 in1023.4 mb 0.00 in0.0 mm 0.00 in0.0 mm 0.00 in0.0 mm
05:49 AM 35.3°F1.8°C 30.1°F-1.1°C 81% 1.0 mph N1.6 kmh N 2.0 mph3.2 kmh 30.22 in1023.4 mb 0.00 in0.0 mm 0.00 in0.0 mm 0.00 in0.0 mm
05:44 AM 36.2°F2.3°C 30.9°F-0.6°C 81% Calm Calm -- 30.21 in1023.0 mb 0.00 in0.0 mm 0.00 in0.0 mm 0.00 in0.0 mm
05:39 AM 36.2°F2.3°C 30.9°F-0.6°C 81% Calm Calm -- 30.21 in1023.0 mb 0.00 in0.0 mm 0.00 in0.0 mm 0.00 in0.0 mm
05:34 AM 35.3°F1.8°C 30.1°F-1.1°C 81% Calm Calm -- 30.21 in1023.0 mb 0.00 in0.0 mm 0.00 in0.0 mm 0.00 in0.0 mm
05:29 AM 35.6°F2.0°C 30.1°F-1.1°C 80% Calm Calm -- 30.20 in1022.7 mb 0.00 in0.0 mm 0.00 in0.0 mm 0.00 in0.0 mm
05:24 AM 36.1°F2.3°C 30.5°F-0.8°C 80% Calm Calm -- 30.20 in1022.7 mb 0.00 in0.0 mm 0.00 in0.0 mm 0.00 in0.0 mm
05:19 AM 36.4°F2.4°C 30.8°F-0.7°C 80% Calm Calm -- 30.20 in1022.7 mb 0.00 in0.0 mm 0.00 in0.0 mm 0.00 in0.0 mm
05:14 AM 37.0°F2.8°C 31.4°F-0.3°C 80% Calm Calm -- 30.20 in1022.7 mb 0.00 in0.0 mm 0.00 in0.0 mm 0.00 in0.0 mm
05:09 AM 37.4°F3.0°C 31.8°F-0.1°C 80% Calm Calm -- 30.20 in1022.7 mb 0.00 in0.0 mm 0.00 in0.0 mm 0.00 in0.0 mm
05:04 AM 37.3°F2.9°C 31.7°F-0.2°C 80% Calm Calm -- 30.20 in1022.7 mb 0.00 in0.0 mm 0.00 in0.0 mm 0.00 in0.0 mm
04:59 AM 37.2°F2.9°C 31.6°F-0.2°C 80% Calm Calm -- 30.20 in1022.7 mb 0.00 in0.0 mm 0.00 in0.0 mm 0.00 in0.0 mm
04:54 AM 37.4°F3.0°C 31.8°F-0.1°C 80% Calm Calm -- 30.20 in1022.7 mb 0.00 in0.0 mm 0.00 in0.0 mm 0.00 in0.0 mm
04:49 AM 37.5°F3.1°C 31.9°F-0.1°C 80% Calm Calm -- 30.20 in1022.7 mb 0.00 in0.0 mm 0.00 in0.0 mm 0.00 in0.0 mm
04:44 AM 37.8°F3.2°C 32.2°F0.1°C 80% Calm Calm -- 30.20 in1022.7 mb 0.00 in0.0 mm 0.00 in0.0 mm 0.00 in0.0 mm
04:39 AM 37.7°F3.2°C 32.1°F0.1°C 80% Calm Calm 1.0 mph1.6 kmh 30.20 in1022.7 mb 0.00 in0.0 mm 0.00 in0.0 mm 0.00 in0.0 mm
04:34 AM 37.4°F3.0°C 31.8°F-0.1°C 80% Calm Calm 1.0 mph1.6 kmh 30.19 in1022.4 mb 0.00 in0.0 mm 0.00 in0.0 mm 0.00 in0.0 mm
04:29 AM 36.9°F2.7°C 31.3°F-0.4°C 80% Calm Calm 1.0 mph1.6 kmh 30.19 in1022.4 mb 0.00 in0.0 mm 0.00 in0.0 mm 0.00 in0.0 mm
04:24 AM 36.8°F2.7°C 31.2°F-0.4°C 80% Calm Calm -- 30.19 in1022.4 mb 0.00 in0.0 mm 0.00 in0.0 mm 0.00 in0.0 mm
04:19 AM 36.6°F2.6°C 31.0°F-0.6°C 80% Calm Calm -- 30.19 in1022.4 mb 0.00 in0.0 mm 0.00 in0.0 mm 0.00 in0.0 mm
04:14 AM 36.6°F2.6°C 31.0°F-0.6°C 80% Calm Calm -- 30.19 in1022.4 mb 0.00 in0.0 mm 0.00 in0.0 mm 0.00 in0.0 mm
04:09 AM 36.8°F2.7°C 31.2°F-0.4°C 80% Calm Calm -- 30.18 in1022.0 mb 0.00 in0.0 mm 0.00 in0.0 mm 0.00 in0.0 mm
04:04 AM 36.9°F2.7°C 31.3°F-0.4°C 80% Calm Calm -- 30.18 in1022.0 mb 0.00 in0.0 mm 0.00 in0.0 mm 0.00 in0.0 mm
03:59 AM 37.3°F2.9°C 31.7°F-0.2°C 80% Calm Calm -- 30.18 in1022.0 mb 0.00 in0.0 mm 0.00 in0.0 mm 0.00 in0.0 mm
03:54 AM 37.2°F2.9°C 31.6°F-0.2°C 80% Calm Calm -- 30.18 in1022.0 mb 0.00 in0.0 mm 0.00 in0.0 mm 0.00 in0.0 mm
03:49 AM 37.3°F2.9°C 31.7°F-0.2°C 80% Calm Calm -- 30.18 in1022.0 mb 0.00 in0.0 mm 0.00 in0.0 mm 0.00 in0.0 mm
03:44 AM 36.9°F2.7°C 31.3°F-0.4°C 80% Calm Calm 2.0 mph3.2 kmh 30.19 in1022.4 mb 0.00 in0.0 mm 0.00 in0.0 mm 0.00 in0.0 mm
03:39 AM 36.4°F2.4°C 30.8°F-0.7°C 80% 1.0 mph N1.6 kmh N 2.0 mph3.2 kmh 30.18 in1022.0 mb 0.00 in0.0 mm 0.00 in0.0 mm 0.00 in0.0 mm
03:34 AM 36.1°F2.3°C 30.5°F-0.8°C 80% 1.0 mph N1.6 kmh N 2.0 mph3.2 kmh 30.18 in1022.0 mb 0.00 in0.0 mm 0.00 in0.0 mm 0.00 in0.0 mm
03:29 AM 35.8°F2.1°C 30.2°F-1.0°C 80% Calm Calm 1.0 mph1.6 kmh 30.19 in1022.4 mb 0.00 in0.0 mm 0.00 in0.0 mm 0.00 in0.0 mm
03:24 AM 35.5°F1.9°C 30.0°F-1.1°C 80% 1.0 mph N1.6 kmh N 1.0 mph1.6 kmh 30.19 in1022.4 mb 0.00 in0.0 mm 0.00 in0.0 mm 0.00 in0.0 mm
03:19 AM 35.4°F1.9°C 30.2°F-1.0°C 81% Calm Calm -- 30.18 in1022.0 mb 0.00 in0.0 mm 0.00 in0.0 mm 0.00 in0.0 mm
03:14 AM 35.0°F1.7°C 29.5°F-1.4°C 80% Calm Calm -- 30.18 in1022.0 mb 0.00 in0.0 mm 0.00 in0.0 mm 0.00 in0.0 mm
03:09 AM 35.0°F1.7°C 29.5°F-1.4°C 80% Calm Calm -- 30.18 in1022.0 mb 0.00 in0.0 mm 0.00 in0.0 mm 0.00 in0.0 mm
03:04 AM 35.3°F1.8°C 29.8°F-1.2°C 80% Calm Calm -- 30.19 in1022.4 mb 0.00 in0.0 mm 0.00 in0.0 mm 0.00 in0.0 mm
02:59 AM 35.9°F2.2°C 30.3°F-0.9°C 80% Calm Calm -- 30.19 in1022.4 mb 0.00 in0.0 mm 0.00 in0.0 mm 0.00 in0.0 mm
02:54 AM 36.1°F2.3°C 30.5°F-0.8°C 80% Calm Calm -- 30.19 in1022.4 mb 0.00 in0.0 mm 0.00 in0.0 mm 0.00 in0.0 mm
02:49 AM 35.9°F2.2°C 30.3°F-0.9°C 80% Calm Calm -- 30.19 in1022.4 mb 0.00 in0.0 mm 0.00 in0.0 mm 0.00 in0.0 mm
02:44 AM 36.2°F2.3°C 30.6°F-0.8°C 80% Calm Calm -- 30.19 in1022.4 mb 0.00 in0.0 mm 0.00 in0.0 mm 0.00 in0.0 mm
02:39 AM 36.5°F2.5°C 30.9°F-0.6°C 80% Calm Calm -- 30.20 in1022.7 mb 0.00 in0.0 mm 0.00 in0.0 mm 0.00 in0.0 mm
02:34 AM 36.1°F2.3°C 30.5°F-0.8°C 80% Calm Calm -- 30.20 in1022.7 mb 0.00 in0.0 mm 0.00 in0.0 mm 0.00 in0.0 mm
02:29 AM 36.1°F2.3°C 30.5°F-0.8°C 80% Calm Calm 2.0 mph3.2 kmh 30.20 in1022.7 mb 0.00 in0.0 mm 0.00 in0.0 mm 0.00 in0.0 mm
02:24 AM 36.0°F2.2°C 30.4°F-0.9°C 80% 1.0 mph N1.6 kmh N 2.0 mph3.2 kmh 30.19 in1022.4 mb 0.00 in0.0 mm 0.00 in0.0 mm 0.00 in0.0 mm
02:19 AM 36.3°F2.4°C 30.7°F-0.7°C 80% Calm Calm -- 30.20 in1022.7 mb 0.00 in0.0 mm 0.00 in0.0 mm 0.00 in0.0 mm
02:14 AM 36.1°F2.3°C 30.5°F-0.8°C 80% Calm Calm 1.0 mph1.6 kmh 30.20 in1022.7 mb 0.00 in0.0 mm 0.00 in0.0 mm 0.00 in0.0 mm
02:09 AM 35.9°F2.2°C 30.3°F-0.9°C 80% Calm Calm -- 30.20 in1022.7 mb 0.00 in0.0 mm 0.00 in0.0 mm 0.00 in0.0 mm
02:04 AM 36.0°F2.2°C 30.4°F-0.9°C 80% Calm Calm -- 30.20 in1022.7 mb 0.00 in0.0 mm 0.00 in0.0 mm 0.00 in0.0 mm
01:59 AM 36.1°F2.3°C 30.5°F-0.8°C 80% Calm Calm -- 30.20 in1022.7 mb 0.00 in0.0 mm 0.00 in0.0 mm 0.00 in0.0 mm
01:54 AM 35.9°F2.2°C 30.3°F-0.9°C 80% Calm Calm -- 30.20 in1022.7 mb 0.00 in0.0 mm 0.00 in0.0 mm 0.00 in0.0 mm
01:49 AM 35.7°F2.1°C 30.1°F-1.1°C 80% Calm Calm -- 30.20 in1022.7 mb 0.00 in0.0 mm 0.00 in0.0 mm 0.00 in0.0 mm
01:44 AM 35.6°F2.0°C 30.1°F-1.1°C 80% Calm Calm -- 30.20 in1022.7 mb 0.00 in0.0 mm 0.00 in0.0 mm 0.00 in0.0 mm
01:39 AM 35.9°F2.2°C 30.3°F-0.9°C 80% Calm Calm -- 30.20 in1022.7 mb 0.00 in0.0 mm 0.00 in0.0 mm 0.00 in0.0 mm
01:34 AM 36.0°F2.2°C 30.4°F-0.9°C 80% Calm Calm -- 30.20 in1022.7 mb 0.00 in0.0 mm 0.00 in0.0 mm 0.00 in0.0 mm
01:29 AM 36.5°F2.5°C 30.9°F-0.6°C 80% Calm Calm -- 30.19 in1022.4 mb 0.00 in0.0 mm 0.00 in0.0 mm 0.00 in0.0 mm
01:24 AM 36.8°F2.7°C 31.2°F-0.4°C 80% Calm Calm -- 30.19 in1022.4 mb 0.00 in0.0 mm 0.00 in0.0 mm 0.00 in0.0 mm
01:19 AM 36.7°F2.6°C 30.8°F-0.7°C 79% Calm Calm -- 30.19 in1022.4 mb 0.00 in0.0 mm 0.00 in0.0 mm 0.00 in0.0 mm
01:14 AM 37.3°F2.9°C 31.4°F-0.3°C 79% Calm Calm -- 30.19 in1022.4 mb 0.00 in0.0 mm 0.00 in0.0 mm 0.00 in0.0 mm
01:09 AM 37.3°F2.9°C 31.4°F-0.3°C 79% Calm Calm -- 30.19 in1022.4 mb 0.00 in0.0 mm 0.00 in0.0 mm 0.00 in0.0 mm
01:04 AM 37.3°F2.9°C 31.4°F-0.3°C 79% Calm Calm -- 30.19 in1022.4 mb 0.00 in0.0 mm 0.00 in0.0 mm 0.00 in0.0 mm
12:59 AM 37.3°F2.9°C 31.4°F-0.3°C 79% Calm Calm -- 30.19 in1022.4 mb 0.00 in0.0 mm 0.00 in0.0 mm 0.00 in0.0 mm
12:54 AM 37.5°F3.1°C 31.6°F-0.2°C 79% Calm Calm -- 30.19 in1022.4 mb 0.00 in0.0 mm 0.00 in0.0 mm 0.00 in0.0 mm
12:49 AM 38.0°F3.3°C 32.1°F0.1°C 79% Calm Calm -- 30.19 in1022.4 mb 0.00 in0.0 mm 0.00 in0.0 mm 0.00 in0.0 mm
12:44 AM 38.1°F3.4°C 32.2°F0.1°C 79% Calm Calm -- 30.18 in1022.0 mb 0.00 in0.0 mm 0.00 in0.0 mm 0.00 in0.0 mm
12:39 AM 37.7°F3.2°C 31.8°F-0.1°C 79% Calm Calm -- 30.18 in1022.0 mb 0.00 in0.0 mm 0.00 in0.0 mm 0.00 in0.0 mm
12:34 AM 37.7°F3.2°C 31.8°F-0.1°C 79% 1.0 mph N1.6 kmh N 1.0 mph1.6 kmh 30.18 in1022.0 mb 0.00 in0.0 mm 0.00 in0.0 mm 0.00 in0.0 mm
12:29 AM 37.5°F3.1°C 31.6°F-0.2°C 79% 1.0 mph N1.6 kmh N 1.0 mph1.6 kmh 30.18 in1022.0 mb 0.00 in0.0 mm 0.00 in0.0 mm 0.00 in0.0 mm
12:24 AM 37.4°F3.0°C 31.5°F-0.3°C 79% Calm Calm -- 30.18 in1022.0 mb 0.00 in0.0 mm 0.00 in0.0 mm 0.00 in0.0 mm
12:19 AM 37.3°F2.9°C 31.4°F-0.3°C 79% Calm Calm -- 30.18 in1022.0 mb 0.00 in0.0 mm 0.00 in0.0 mm 0.00 in0.0 mm
12:14 AM 37.2°F2.9°C 31.3°F-0.4°C 79% Calm Calm -- 30.18 in1022.0 mb 0.00 in0.0 mm 0.00 in0.0 mm 0.00 in0.0 mm
12:09 AM 37.1°F2.8°C 31.2°F-0.4°C 79% Calm Calm -- 30.17 in1021.7 mb 0.00 in0.0 mm 0.00 in0.0 mm 0.00 in0.0 mm
12:04 AM 37.2°F2.9°C 31.3°F-0.4°C 79% Calm Calm -- 30.17 in1021.7 mb 0.00 in0.0 mm 0.00 in0.0 mm 0.00 in0.0 mm